ADDS METAR Data INFO
IDs: Format: Raw Decoded Include TAF

Data at: 2010 UTC 19 Oct 2017

KAVC 191955Z AUTO 20005KT 10SM CLR 23/09 A3027 RMK AO2 T02270087
KAVC 191935Z AUTO 23004KT 10SM CLR 23/09 A3027 RMK AO2 T02250085
KAVC 191915Z AUTO 21006KT 10SM CLR 22/08 A3027 RMK AO2 T02220081
KAVC 191855Z AUTO 25006KT 10SM CLR 22/08 A3028 RMK AO2 T02210076
KAVC 191835Z AUTO 26007KT 220V310 10SM CLR 22/10 A3028 RMK AO2 T02180096
KAVC 191815Z AUTO 25007KT 10SM CLR 22/10 A3029 RMK AO2 T02190102
KAVC 191755Z AUTO 22007KT 10SM CLR 22/11 A3030 RMK AO2 T02160107 10216 20035
KAVC 191735Z AUTO 25003KT 10SM CLR 21/12 A3030 RMK AO2 T02100118
KAVC 191715Z AUTO 21005KT 10SM CLR 21/11 A3031 RMK AO2 T02060111
KAVC 191655Z AUTO 21009KT 10SM CLR 20/10 A3032 RMK AO2 T02040101
KAVC 191635Z AUTO 21004KT 10SM CLR 20/10 A3034 RMK AO2 T01970098
KAVC 191615Z AUTO 17004KT 10SM CLR 19/11 A3035 RMK AO2 T01900105
KAVC 191555Z AUTO 23004KT 10SM CLR 19/10 A3036 RMK AO2 T01880103
KAVC 191535Z AUTO 25005KT 10SM CLR 18/10 A3037 RMK AO2 T01800103
KAVC 191515Z AUTO 22005KT 10SM CLR 18/12 A3037 RMK AO2 T01760115
KAVC 191455Z AUTO 23003KT 10SM CLR 17/12 A3038 RMK AO2 T01660120
KAVC 191435Z AUTO 23005KT 10SM CLR 16/13 A3038 RMK AO2 T01600128
KAVC 191415Z AUTO 25003KT 10SM CLR 15/13 A3038 RMK AO2 T01490125
KAVC 191355Z AUTO 24003KT 10SM CLR 14/12 A3038 RMK AO2 T01400124
KAVC 191335Z AUTO 00000KT 10SM CLR 13/12 A3038 RMK AO2 T01330122
KAVC 191315Z AUTO 00000KT 10SM CLR 12/11 A3037 RMK AO2 T01150114
KAVC 191255Z AUTO 00000KT 10SM CLR 09/09 A3037 RMK AO2 T00930093
KAVC 191235Z AUTO 00000KT 7SM CLR 07/07 A3036 RMK AO2 T00720072
KAVC 191215Z AUTO 00000KT 10SM SCT001 04/04 A3036 RMK AO2 T00400040
KAVC 191155Z AUTO 00000KT 10SM SCT001 03/03 A3036 RMK AO2 T00340034 10056 20030
KAVC 191135Z AUTO 00000KT 10SM CLR 03/03 A3036 RMK AO2 T00300030
KAVC 191115Z AUTO 00000KT 10SM CLR 03/03 A3035 RMK AO2 T00320032
KAVC 191055Z AUTO 00000KT 10SM SCT002 04/04 A3036 RMK AO2 T00360036
KAVC 191035Z AUTO 00000KT 1/2SM OVC002 04/04 A3036 RMK AO2 T00400040
KAVC 191015Z AUTO 00000KT 10SM BKN002 BKN006 04/04 A3035 RMK AO2 T00400040
KAVC 190955Z AUTO 00000KT 10SM SCT004 04/04 A3035 RMK AO2 T00420041
KAVC 190935Z AUTO 00000KT 10SM CLR 05/05 A3035 RMK AO2 T00540046
KAVC 190915Z AUTO 00000KT 10SM CLR 05/05 A3035 RMK AO2 T00470045
KAVC 190855Z AUTO 00000KT 10SM CLR 04/04 A3035 RMK AO2 T00400040
KAVC 190835Z AUTO 00000KT 10SM CLR 04/04 A3035 RMK AO2 T00400037
KAVC 190815Z AUTO 00000KT 10SM CLR 05/04 A3035 RMK AO2 T00450042
KAVC 190755Z AUTO 00000KT 10SM CLR 04/04 A3035 RMK AO2 T00430040
KAVC 190735Z AUTO 00000KT 10SM CLR 04/04 A3036 RMK AO2 T00420041
KAVC 190715Z AUTO 00000KT 10SM CLR 05/04 A3036 RMK AO2 T00450042
KAVC 190655Z AUTO 00000KT 10SM CLR 05/04 A3037 RMK AO2 T00450044
KAVC 190635Z AUTO 00000KT 10SM CLR 05/04 A3037 RMK AO2 T00490044
KAVC 190615Z AUTO 00000KT 10SM CLR 05/05 A3037 RMK AO2 T00470046
KAVC 190555Z AUTO 00000KT 10SM CLR 05/05 A3037 RMK AO2 T00530049 10101 20050
KAVC 190535Z AUTO 00000KT 10SM CLR 07/06 A3037 RMK AO2 T00670062
KAVC 190515Z AUTO 00000KT 10SM CLR 06/06 A3038 RMK AO2 T00560055
KAVC 190455Z AUTO 00000KT 10SM CLR 05/05 A3037 RMK AO2 T00520050 401960002
KAVC 190435Z AUTO 00000KT 10SM CLR 07/07 A3038 RMK AO2 T00690065
KAVC 190415Z AUTO 00000KT 10SM CLR 06/06 A3038 RMK AO2 T00600059
KAVC 190355Z AUTO 00000KT 10SM CLR 06/06 A3038 RMK AO2 T00570055
KAVC 190335Z AUTO 00000KT 10SM CLR 06/06 A3039 RMK AO2 T00620057
KAVC 190315Z AUTO 00000KT 10SM CLR 06/06 A3039 RMK AO2 T00610058
KAVC 190255Z AUTO 00000KT 10SM CLR 06/06 A3039 RMK AO2 T00620061
KAVC 190235Z AUTO 00000KT 10SM CLR 06/06 A3038 RMK AO2 T00630060
KAVC 190215Z AUTO 00000KT 10SM CLR 07/07 A3039 RMK AO2 T00660065
KAVC 190155Z AUTO 00000KT 10SM CLR 08/07 A3039 RMK AO2 T00760074
KAVC 190135Z AUTO 00000KT 10SM CLR 07/07 A3039 RMK AO2 T00720069
KAVC 190115Z AUTO 00000KT 10SM CLR 07/07 A3039 RMK AO2 T00740071
KAVC 190055Z AUTO 00000KT 10SM CLR 08/07 A3039 RMK AO2 T00750072
KAVC 190035Z AUTO 00000KT 10SM CLR 09/07 A3039 RMK AO2 T00900074
KAVC 190015Z AUTO 00000KT 10SM CLR 09/08 A3039 RMK AO2 T00900079
KAVC 182355Z AUTO 00000KT 10SM CLR 10/08 A3039 RMK AO2 T01020076 10196 20101
KAVC 182335Z AUTO 00000KT 10SM CLR 10/08 A3039 RMK AO2 T01040077
KAVC 182315Z AUTO 00000KT 10SM CLR 11/08 A3038 RMK AO2 T01110083
KAVC 182255Z AUTO 00000KT 10SM CLR 12/09 A3038 RMK AO2 T01190085
KAVC 182235Z AUTO 00000KT 10SM CLR 14/09 A3038 RMK AO2 T01350085
KAVC 182215Z AUTO 00000KT 10SM CLR 16/08 A3038 RMK AO2 T01590078
KAVC 182155Z AUTO 00000KT 10SM CLR 18/06 A3037 RMK AO2 T01780062
KAVC 182135Z AUTO 00000KT 10SM CLR 19/05 A3037 RMK AO2 T01870046
KAVC 182115Z AUTO 00000KT 10SM CLR 19/04 A3037 RMK AO2 T01910037
KAVC 182055Z AUTO 00000KT 10SM CLR 19/04 A3038 RMK AO2 T01920039
KAVC 182035Z AUTO 00000KT 10SM CLR 20/04 A3038 RMK AO2 T01950037
KAVC 182015Z AUTO 00000KT 10SM CLR 19/03 A3038 RMK AO2 T01910032
KAVC 181955Z AUTO 00000KT 10SM CLR 19/03 A3039 RMK AO2 T01930031
KAVC 181935Z AUTO 00000KT 10SM CLR 19/03 A3039 RMK AO2 T01940032
KAVC 181915Z AUTO 00000KT 10SM CLR 19/02 A3040 RMK AO2 T01880021
KAVC 181855Z AUTO 00000KT 10SM CLR 19/02 A3040 RMK AO2 T01890019
KAVC 181835Z AUTO 02004KT 10SM CLR 19/02 A3041 RMK AO2 T01890020
KAVC 181815Z AUTO 00000KT 10SM CLR 18/01 A3042 RMK AO2 T01840014
KAVC 181755Z AUTO 03003KT 10SM CLR 18/01 A3042 RMK AO2 T01790007 10185 20013
KAVC 181735Z AUTO 34004KT 10SM CLR 18/02 A3043 RMK AO2 T01820024
KAVC 181715Z AUTO 00000KT 10SM CLR 18/02 A3044 RMK AO2 T01750015
KAVC 181655Z AUTO 05004KT 10SM CLR 18/03 A3045 RMK AO2 T01760029
KAVC 181635Z AUTO 10003KT 10SM CLR 17/03 A3046 RMK AO2 T01700027
KAVC 181615Z AUTO 00000KT 10SM CLR 16/04 A3047 RMK AO2 T01610043
KAVC 181555Z AUTO 08004KT 10SM CLR 15/04 A3047 RMK AO2 T01530037
KAVC 181535Z AUTO 00000KT 10SM CLR 15/04 A3047 RMK AO2 T01480044
KAVC 181515Z AUTO 00000KT 10SM CLR 14/05 A3047 RMK AO2 T01440049
KAVC 181455Z AUTO 02003KT 10SM CLR 14/06 A3047 RMK AO2 T01370055
KAVC 181435Z AUTO 01003KT 10SM CLR 13/06 A3047 RMK AO2 T01320058
KAVC 181415Z AUTO 00000KT 10SM CLR 12/07 A3047 RMK AO2 T01220066
KAVC 181355Z AUTO 35004KT 10SM CLR 12/07 A3047 RMK AO2 T01150073
KAVC 181335Z AUTO 35003KT 10SM CLR 11/07 A3046 RMK AO2 T01050068
KAVC 181315Z AUTO 35003KT 10SM CLR 10/07 A3046 RMK AO2 T00960070
KAVC 181255Z AUTO 00000KT 10SM CLR 08/07 A3045 RMK AO2 T00800065
KAVC 181235Z AUTO 00000KT 10SM CLR 04/04 A3045 RMK AO2 T00440037
KAVC 181215Z AUTO 00000KT 10SM CLR 04/04 A3044 RMK AO2 T00350035
KAVC 181155Z AUTO 00000KT 10SM CLR 01/01 A3044 RMK AO2 T00110010 10040 20002
KAVC 181135Z AUTO 00000KT 10SM CLR 00/00 A3043 RMK AO2 T00020002
KAVC 181115Z AUTO 00000KT 10SM CLR 00/00 A3043 RMK AO2 T00020002
KAVC 181055Z AUTO 00000KT 10SM CLR 02/02 A3042 RMK AO2 T00230023
KAVC 181035Z AUTO 00000KT 10SM CLR 02/02 A3042 RMK AO2 T00220022
KAVC 181015Z AUTO 00000KT 10SM CLR 03/03 A3041 RMK AO2 T00250025
KAVC 180955Z AUTO 00000KT 10SM CLR 01/01 A3041 RMK AO2 T00120012
KAVC 180935Z AUTO 00000KT 10SM CLR 03/03 A3041 RMK AO2 T00260026
KAVC 180915Z AUTO 00000KT 10SM CLR 02/01 A3040 RMK AO2 T00150014
KAVC 180855Z AUTO 00000KT 10SM CLR 01/01 A3040 RMK AO2 T00110011
KAVC 180835Z AUTO 00000KT 10SM CLR 01/01 A3040 RMK AO2 T00080008
KAVC 180815Z AUTO 00000KT 10SM CLR 01/01 A3040 RMK AO2 T00100010